首页
METAR-TAF:

METAR-TAF

机场 :

富納富提國際機場

富纳富提, 圖瓦盧

纬度: 08-31S, 经度: 179-13E, 海拔: 1米

当前天气观测

该预报发布于46分钟前的02:00 UTC
静风
温度 32°C
湿度 75%
气压 1007 hPa
能见度10公里或以上
少量云层高于1800英尺, 塔状积云.
多云层高于11000英尺

METAR: NGFU 200200Z 00000KT 9999 FEW018TCU BKN110 32/27 Q1007

时间: 14:46 (02:46 UTC)

预报

该预报发布于3小时和41分钟前的23:05 UTC
预报有效从20日的 00点(UTC)到 20日的 24点(UTC)
风速9节,风向东北
能见度10公里或以上
散云层高于1700英尺
多云层高于10000英尺
小阵雨
几率 40% :
短暂存在
从 20日的 00点(UTC)到 20日的 12点(UTC)
能見度: 5000
少量云层高于1800英尺, 积雨云.
雷暴, 雨,

TAF: NGFU 192305Z 2000/2024 05009KT 9999 -SHRA SCT017 BKN100 PROB40 TEMPO 2000/2012 5000 TSRA FEW018CB

超过4000个机场的气象观测和天气预报(METAR&TAF报告)。

可查询的气象台以黄色和红色小点在地图上表示。

将鼠标移到小点上方,可查看气象台名称。

然后点击查看天气观测和预报。

如需切换地图:点击带黑十字的绿色按钮放大地图;点击带横线的绿色按钮缩小地图;或者点击绿色箭头查看邻近地区的地图。


METAR-TAF: